Time;durP1;ratioP1;P1;durP2;ratioP2;P2;SDS_P1;SDS_P2;PMS_P1;PMS_P2;Temp;Humidity;BMP_temperature;BMP_pressure;BME280_temperature;BME280_humidity;BME280_pressure;Samples;Min_cycle;Max_cycle;Signal;HPM_P1;HPM_P2
2022/07/24 00:01:41;;;;;;;3.33;2.10;;;19.40;99.90;;;;;;5092659;28;20271;-70
2022/07/24 00:04:09;;;;;;;4.00;2.07;;;19.70;99.90;;;;;;5092608;28;20174;-69
2022/07/24 00:06:37;;;;;;;1.93;1.67;;;19.80;99.90;;;;;;5092739;28;20240;-68
2022/07/24 00:09:06;;;;;;;2.43;1.83;;;20.10;99.90;;;;;;5092208;28;20285;-68
2022/07/24 00:11:33;;;;;;;4.20;1.97;;;20.40;99.90;;;;;;5092382;28;20307;-69
2022/07/24 00:14:01;;;;;;;3.07;2.30;;;20.40;99.90;;;;;;5092584;28;20179;-69
2022/07/24 00:16:29;;;;;;;2.40;2.00;;;21.10;99.90;;;;;;5074045;28;20180;-67
2022/07/24 00:18:57;;;;;;;3.70;1.63;;;21.00;99.90;;;;;;5092454;28;20640;-69
2022/07/24 00:21:25;;;;;;;3.80;1.40;;;21.00;99.90;;;;;;5099146;28;20189;-69
2022/07/24 00:23:52;;;;;;;3.53;1.60;;;21.30;99.90;;;;;;5112684;28;20167;-68
2022/07/24 00:26:20;;;;;;;4.50;2.07;;;21.30;99.90;;;;;;5112560;28;20182;-69
2022/07/24 00:28:49;;;;;;;2.97;1.30;;;21.60;99.90;;;;;;5107232;28;20194;-69
2022/07/24 00:31:18;;;;;;;2.87;1.23;;;21.80;99.90;;;;;;5091396;28;20344;-68
2022/07/24 00:33:48;;;;;;;7.37;1.77;;;21.70;99.90;;;;;;5092126;28;20191;-69
2022/07/24 00:36:16;;;;;;;1.70;1.27;;;21.70;99.90;;;;;;5091775;28;20675;-68
2022/07/24 00:38:44;;;;;;;1.07;0.83;;;21.20;99.90;;;;;;5092301;28;20236;-69
2022/07/24 00:41:12;;;;;;;1.83;0.80;;;21.20;99.90;;;;;;5091458;28;20187;-68
2022/07/24 00:44:05;;;;;;;2.87;1.43;;;20.80;99.90;;;;;;5091906;28;20179;-68
2022/07/24 00:46:34;;;;;;;1.30;1.20;;;21.30;99.90;;;;;;5072452;28;20550;-70
2022/07/24 00:49:04;;;;;;;2.30;0.73;;;21.20;99.90;;;;;;5091699;28;20661;-69
2022/07/24 00:51:33;;;;;;;4.03;1.23;;;21.80;99.90;;;;;;5091199;28;20234;-67
2022/07/24 00:54:05;;;;;;;2.47;0.90;;;22.20;99.90;;;;;;5092005;28;20662;-69
2022/07/24 00:56:33;;;;;;;3.53;1.20;;;22.60;99.90;;;;;;5091912;28;20174;-64
2022/07/24 00:59:04;;;;;;;1.80;1.27;;;22.90;99.90;;;;;;5091593;28;20179;-65
2022/07/24 01:01:32;;;;;;;1.70;1.10;;;22.70;99.90;;;;;;5091583;28;20269;-65
2022/07/24 01:04:01;;;;;;;2.10;1.03;;;22.50;99.90;;;;;;5091726;28;20576;-65
2022/07/24 01:06:29;;;;;;;3.67;1.10;;;22.80;99.90;;;;;;5090791;28;20179;-63
2022/07/24 01:08:57;;;;;;;4.27;1.40;;;22.90;99.90;;;;;;5090563;28;20196;-63
2022/07/24 01:11:25;;;;;;;1.37;1.10;;;23.30;99.90;;;;;;5090619;28;20283;-66
2022/07/24 01:13:52;;;;;;;1.83;1.07;;;22.40;99.90;;;;;;5091477;28;20210;-65
2022/07/24 01:16:20;;;;;;;4.40;1.50;;;22.70;99.90;;;;;;5071393;28;20176;-65
2022/07/24 01:18:48;;;;;;;2.63;1.37;;;23.10;99.90;;;;;;5089816;28;20665;-65
2022/07/24 01:21:16;;;;;;;1.70;1.00;;;22.70;99.90;;;;;;5090999;28;20191;-64
2022/07/24 01:23:43;;;;;;;3.00;1.20;;;22.80;99.90;;;;;;5091449;28;20179;-66
2022/07/24 01:26:11;;;;;;;2.03;1.20;;;23.30;99.90;;;;;;5091218;28;20195;-64
2022/07/24 01:28:39;;;;;;;4.67;1.03;;;23.00;99.90;;;;;;5091397;28;20292;-65
2022/07/24 01:31:06;;;;;;;1.40;1.00;;;23.20;99.90;;;;;;5090773;28;20705;-64
2022/07/24 01:33:34;;;;;;;2.03;1.10;;;23.10;99.90;;;;;;5090182;28;20182;-65
2022/07/24 01:36:02;;;;;;;2.33;1.10;;;23.40;99.90;;;;;;5090883;28;20191;-65
2022/07/24 01:38:30;;;;;;;1.83;0.80;;;23.10;99.90;;;;;;5090973;28;20183;-67
2022/07/24 01:40:58;;;;;;;1.27;0.80;;;22.50;99.90;;;;;;5090779;28;20194;-65
2022/07/24 01:43:25;;;;;;;2.57;1.00;;;22.50;99.90;;;;;;5091099;28;20187;-64
2022/07/24 01:45:52;;;;;;;2.40;1.00;;;23.00;99.90;;;;;;5090666;28;20194;-66
2022/07/24 01:48:20;;;;;;;3.17;0.90;;;23.40;99.90;;;;;;5090825;28;20183;-65
2022/07/24 01:50:47;;;;;;;5.40;1.10;;;23.60;99.90;;;;;;5090866;28;20230;-67
2022/07/24 01:53:15;;;;;;;2.23;0.70;;;23.70;99.90;;;;;;5090502;28;20179;-65
2022/07/24 01:55:42;;;;;;;1.53;0.60;;;23.90;99.90;;;;;;5105632;28;20190;-64
2022/07/24 01:58:10;;;;;;;0.40;0.40;;;24.00;99.90;;;;;;5110088;28;20516;-64
2022/07/24 02:00:37;;;;;;;2.53;0.63;;;23.90;99.90;;;;;;5091068;28;20692;-64
2022/07/24 02:03:04;;;;;;;2.60;0.80;;;24.20;99.90;;;;;;5092286;28;20179;-64
2022/07/24 02:05:32;;;;;;;3.10;0.90;;;24.30;99.90;;;;;;5093626;28;20171;-65
2022/07/24 02:08:00;;;;;;;2.40;0.80;;;24.50;99.90;;;;;;5097875;28;20178;-65
2022/07/24 02:10:29;;;;;;;3.80;1.10;;;24.60;99.90;;;;;;5106955;28;20685;-65
2022/07/24 02:12:58;;;;;;;1.47;0.97;;;24.80;99.90;;;;;;5094515;28;20175;-67
2022/07/24 02:15:26;;;;;;;3.20;0.83;;;25.10;99.90;;;;;;5093479;28;20190;-65
2022/07/24 02:17:56;;;;;;;1.40;0.57;;;25.20;99.90;;;;;;5093752;28;20195;-68
2022/07/24 02:20:24;;;;;;;1.33;0.60;;;25.00;99.90;;;;;;5128738;27;20568;-69
2022/07/24 02:22:53;;;;;;;1.73;0.50;;;25.10;99.90;;;;;;5104547;27;20199;-69
2022/07/24 02:25:20;;;;;;;0.83;0.60;;;25.20;99.90;;;;;;5093732;28;20187;-69
2022/07/24 02:27:48;;;;;;;2.37;0.70;;;25.50;99.90;;;;;;5094460;28;20179;-69
2022/07/24 02:30:19;;;;;;;3.37;0.87;;;25.40;99.90;;;;;;5093627;28;20223;-69
2022/07/24 02:32:46;;;;;;;2.00;0.70;;;25.70;99.90;;;;;;5094032;28;20187;-69
2022/07/24 02:35:14;;;;;;;0.87;0.53;;;25.70;99.90;;;;;;5074712;28;20190;-69
2022/07/24 02:37:44;;;;;;;1.10;0.70;;;25.00;99.90;;;;;;5094084;28;20191;-69
2022/07/24 02:40:14;;;;;;;1.97;0.50;;;24.50;99.90;;;;;;5094187;28;20190;-69
2022/07/24 02:42:42;;;;;;;1.63;0.50;;;24.20;99.90;;;;;;5094228;28;20264;-69
2022/07/24 02:45:10;;;;;;;3.10;0.60;;;24.30;99.90;;;;;;5093759;28;20333;-69
2022/07/24 02:47:50;;;;;;;3.03;0.77;;;24.60;99.90;;;;;;5094134;28;20187;-68
2022/07/24 02:50:18;;;;;;;3.00;0.50;;;24.60;99.90;;;;;;5093204;28;20194;-69
2022/07/24 02:52:46;;;;;;;3.40;0.80;;;24.60;99.90;;;;;;5093527;28;20233;-68
2022/07/24 02:55:13;;;;;;;3.97;0.90;;;25.00;99.90;;;;;;5093870;28;20742;-69
2022/07/24 02:57:41;;;;;;;1.70;0.60;;;25.40;99.90;;;;;;5093785;28;20191;-69
2022/07/24 03:00:12;;;;;;;2.43;0.70;;;25.40;99.90;;;;;;5093462;28;20197;-69
2022/07/24 03:02:40;;;;;;;2.30;0.60;;;25.60;99.90;;;;;;5093813;28;20179;-69
2022/07/24 03:05:08;;;;;;;1.17;0.40;;;25.70;99.90;;;;;;5092818;28;20187;-69
2022/07/24 03:07:38;;;;;;;1.43;0.50;;;25.60;99.90;;;;;;5093562;28;20178;-67
2022/07/24 03:10:08;;;;;;;1.10;0.40;;;25.50;99.90;;;;;;5093213;28;20702;-68
2022/07/24 03:12:35;;;;;;;2.70;0.60;;;25.40;99.90;;;;;;5092743;28;20199;-69
2022/07/24 03:15:03;;;;;;;3.30;0.50;;;25.40;99.90;;;;;;5093422;28;20183;-68
2022/07/24 03:17:30;;;;;;;2.53;0.80;;;25.30;99.90;;;;;;5093295;28;20198;-68
2022/07/24 03:19:58;;;;;;;1.67;0.60;;;25.40;99.90;;;;;;5092383;28;20595;-67
2022/07/24 03:22:25;;;;;;;4.77;0.97;;;25.10;99.90;;;;;;5089886;28;20187;-68
2022/07/24 03:24:53;;;;;;;0.73;0.50;;;24.80;99.90;;;;;;5091916;28;20187;-70
2022/07/24 03:27:20;;;;;;;1.50;0.50;;;24.20;99.90;;;;;;5093595;28;20634;-69
2022/07/24 03:29:48;;;;;;;3.03;0.60;;;24.20;99.90;;;;;;5093260;28;20183;-68
2022/07/24 03:32:15;;;;;;;0.80;0.50;;;24.00;99.90;;;;;;5092773;28;20230;-68
2022/07/24 03:34:42;;;;;;;3.67;0.57;;;24.20;99.90;;;;;;5093142;28;20193;-69
2022/07/24 03:37:10;;;;;;;3.60;0.63;;;23.90;99.90;;;;;;5092748;28;20284;-68
2022/07/24 03:39:37;;;;;;;1.17;0.60;;;24.10;99.90;;;;;;5091780;28;20638;-68
2022/07/24 03:42:04;;;;;;;2.13;0.67;;;24.20;99.90;;;;;;5093049;28;20179;-70
2022/07/24 03:44:32;;;;;;;3.33;0.83;;;23.40;99.90;;;;;;5074402;28;20190;-67
2022/07/24 03:46:59;;;;;;;1.53;0.80;;;23.50;99.90;;;;;;5093038;28;20185;-69
2022/07/24 03:49:26;;;;;;;3.17;1.30;;;23.80;99.90;;;;;;5092605;28;20297;-69
2022/07/24 03:51:54;;;;;;;2.57;1.10;;;23.90;99.90;;;;;;5111391;28;20685;-69
2022/07/24 03:54:21;;;;;;;1.53;0.70;;;23.50;99.90;;;;;;5108185;28;20199;-69
2022/07/24 03:56:49;;;;;;;1.80;0.60;;;23.70;99.90;;;;;;5093030;28;20262;-69
2022/07/24 03:59:17;;;;;;;3.53;0.70;;;23.60;99.90;;;;;;5074259;28;20276;-69
2022/07/24 04:01:44;;;;;;;1.97;0.50;;;23.60;99.90;;;;;;5094368;28;20214;-68
2022/07/24 04:04:12;;;;;;;2.63;0.63;;;23.80;99.90;;;;;;5098894;28;20242;-68
2022/07/24 04:06:42;;;;;;;2.50;0.80;;;23.90;99.90;;;;;;5092383;28;20661;-68
2022/07/24 04:09:10;;;;;;;2.53;0.60;;;23.60;99.90;;;;;;5092875;28;20181;-68
2022/07/24 04:11:37;;;;;;;2.03;0.70;;;23.60;99.90;;;;;;5091997;28;20207;-68
2022/07/24 04:14:05;;;;;;;1.60;0.53;;;23.70;99.90;;;;;;5090768;28;20561;-66
2022/07/24 04:16:32;;;;;;;2.03;0.60;;;23.40;99.90;;;;;;5092835;28;20175;-69
2022/07/24 04:19:00;;;;;;;3.40;1.03;;;22.90;99.90;;;;;;5081570;28;20182;-65
2022/07/24 04:21:27;;;;;;;2.00;0.77;;;23.10;99.90;;;;;;5092514;28;20178;-68
2022/07/24 04:23:54;;;;;;;1.23;0.70;;;23.10;99.90;;;;;;5092469;28;20182;-67
2022/07/24 04:26:22;;;;;;;5.27;1.30;;;22.00;99.90;;;;;;5091712;28;20172;-67
2022/07/24 04:28:49;;;;;;;3.63;0.97;;;22.00;99.90;;;;;;5092238;28;20194;-68
2022/07/24 04:31:16;;;;;;;1.50;0.87;;;21.60;99.90;;;;;;5073985;28;20698;-68
2022/07/24 04:33:44;;;;;;;1.70;0.70;;;21.90;99.90;;;;;;5092382;28;20172;-67
2022/07/24 04:36:11;;;;;;;0.60;0.50;;;21.90;99.90;;;;;;5092057;28;20681;-67
2022/07/24 04:38:38;;;;;;;6.70;1.27;;;22.20;99.90;;;;;;5091947;28;20653;-68
2022/07/24 04:41:06;;;;;;;5.50;3.07;;;22.00;99.90;;;;;;5091739;28;20185;-68
2022/07/24 04:43:33;;;;;;;3.80;1.07;;;22.10;99.90;;;;;;5091714;28;20180;-68
2022/07/24 04:46:00;;;;;;;2.20;0.87;;;22.10;99.90;;;;;;5091637;28;20224;-69
2022/07/24 04:48:28;;;;;;;4.27;1.23;;;22.20;99.90;;;;;;5107585;28;20171;-70
2022/07/24 04:50:55;;;;;;;1.17;0.63;;;22.10;99.90;;;;;;5091799;28;20275;-69
2022/07/24 04:53:23;;;;;;;0.67;0.60;;;22.00;99.90;;;;;;5091613;28;20232;-70
2022/07/24 04:55:50;;;;;;;1.27;0.53;;;21.80;99.90;;;;;;5091036;28;20186;-69
2022/07/24 04:58:17;;;;;;;2.33;0.90;;;21.90;99.90;;;;;;5091385;28;20221;-68
2022/07/24 05:00:45;;;;;;;2.43;0.70;;;21.90;99.90;;;;;;5091595;28;20189;-68
2022/07/24 05:03:12;;;;;;;1.63;0.70;;;21.70;99.90;;;;;;5091346;28;20187;-68
2022/07/24 05:05:40;;;;;;;1.73;0.90;;;21.60;99.90;;;;;;5091145;28;20194;-70
2022/07/24 05:08:07;;;;;;;1.57;0.70;;;21.50;99.90;;;;;;5091342;28;20683;-69
2022/07/24 05:10:34;;;;;;;1.27;0.50;;;20.90;99.90;;;;;;5107100;28;20252;-67
2022/07/24 05:13:02;;;;;;;2.13;0.70;;;20.80;99.90;;;;;;5091607;28;20240;-69
2022/07/24 05:15:29;;;;;;;3.20;0.80;;;20.90;99.90;;;;;;5095724;28;20656;-68
2022/07/24 05:17:56;;;;;;;3.47;0.80;;;21.20;99.90;;;;;;5096394;28;20543;-68
2022/07/24 05:20:24;;;;;;;1.00;0.60;;;21.10;99.90;;;;;;5091606;28;20175;-69
2022/07/24 05:22:51;;;;;;;1.47;0.63;;;20.90;99.90;;;;;;5091558;28;20699;-67
2022/07/24 05:25:19;;;;;;;4.00;0.80;;;21.00;99.90;;;;;;5091630;28;20229;-67
2022/07/24 05:27:46;;;;;;;1.87;0.60;;;20.90;99.90;;;;;;5091759;28;20229;-67
2022/07/24 05:30:14;;;;;;;0.73;0.63;;;21.10;99.90;;;;;;5091316;28;20238;-69
2022/07/24 05:32:41;;;;;;;1.63;1.17;;;21.00;99.90;;;;;;5091694;28;20186;-67
2022/07/24 05:35:09;;;;;;;2.20;0.90;;;20.60;99.90;;;;;;5073520;28;20274;-68
2022/07/24 05:37:37;;;;;;;3.40;0.80;;;20.40;99.90;;;;;;5093789;28;20210;-67
2022/07/24 05:40:05;;;;;;;2.30;0.70;;;20.30;99.90;;;;;;5095650;28;20208;-69
2022/07/24 05:42:33;;;;;;;0.83;0.70;;;20.20;99.90;;;;;;5105974;28;20197;-68
2022/07/24 05:45:00;;;;;;;3.43;0.80;;;20.10;99.90;;;;;;5105152;28;20184;-68
2022/07/24 05:47:27;;;;;;;3.90;0.93;;;20.00;99.90;;;;;;5115874;28;20539;-68
2022/07/24 05:49:54;;;;;;;3.23;0.73;;;19.80;99.90;;;;;;5113744;28;20547;-68
2022/07/24 05:52:22;;;;;;;2.07;0.80;;;19.50;99.90;;;;;;5115532;28;20221;-68
2022/07/24 05:54:49;;;;;;;6.33;0.90;;;19.30;99.90;;;;;;5115731;28;20178;-68
2022/07/24 05:57:16;;;;;;;1.40;0.60;;;19.20;99.90;;;;;;5115750;28;20204;-68
2022/07/24 05:59:44;;;;;;;2.20;0.70;;;19.00;99.90;;;;;;5115655;28;20179;-68
2022/07/24 06:02:11;;;;;;;6.60;1.30;;;18.90;99.90;;;;;;5115556;28;20560;-68
2022/07/24 06:04:41;;;;;;;2.13;0.93;;;18.60;99.90;;;;;;5115318;28;20168;-68
2022/07/24 06:07:10;;;;;;;3.27;1.00;;;18.50;99.90;;;;;;5115606;28;20174;-68
2022/07/24 06:09:38;;;;;;;3.00;1.00;;;18.40;99.90;;;;;;5108721;28;20189;-68
2022/07/24 06:12:06;;;;;;;1.97;1.00;;;18.30;99.90;;;;;;5094755;28;20219;-68
2022/07/24 06:14:34;;;;;;;4.27;1.53;;;18.20;99.90;;;;;;5094964;28;20262;-68
2022/07/24 06:17:01;;;;;;;4.90;1.50;;;18.10;99.90;;;;;;5094817;28;20186;-68
2022/07/24 06:19:28;;;;;;;5.47;1.77;;;18.10;99.90;;;;;;5094741;28;20182;-69
2022/07/24 06:21:56;;;;;;;7.70;3.27;;;18.00;99.90;;;;;;5094870;28;20178;-68
2022/07/24 06:24:23;;;;;;;1.83;1.20;;;17.90;99.90;;;;;;5093931;28;20549;-68
2022/07/24 06:26:50;;;;;;;3.27;1.30;;;17.90;99.90;;;;;;5110622;28;20179;-69
2022/07/24 06:29:18;;;;;;;2.70;1.20;;;17.80;99.90;;;;;;5110325;28;20187;-69
2022/07/24 06:31:45;;;;;;;1.57;0.90;;;17.80;99.90;;;;;;5101804;28;20231;-69
2022/07/24 06:34:12;;;;;;;1.40;1.20;;;17.70;99.90;;;;;;5095467;28;20172;-70
2022/07/24 06:36:40;;;;;;;3.00;1.43;;;17.70;99.90;;;;;;5094092;28;20707;-69
2022/07/24 06:39:07;;;;;;;3.43;1.23;;;17.70;99.90;;;;;;5094419;28;20194;-69
2022/07/24 06:41:34;;;;;;;1.93;0.93;;;17.60;99.90;;;;;;5096653;28;20590;-69
2022/07/24 06:44:02;;;;;;;1.67;1.50;;;17.40;99.90;;;;;;5104300;28;20212;-69
2022/07/24 06:46:29;;;;;;;2.67;1.30;;;17.40;99.90;;;;;;5093838;28;20189;-70
2022/07/24 06:48:56;;;;;;;2.63;1.13;;;17.30;99.90;;;;;;5093445;28;20261;-69
2022/07/24 06:51:24;;;;;;;2.57;1.10;;;17.20;99.90;;;;;;5093734;28;20247;-69
2022/07/24 06:53:51;;;;;;;4.20;1.37;;;17.20;99.90;;;;;;5094139;28;20214;-70
2022/07/24 06:56:19;;;;;;;2.70;1.30;;;17.10;99.90;;;;;;5094161;28;20174;-69
2022/07/24 06:58:46;;;;;;;3.60;1.30;;;17.00;99.90;;;;;;5094179;28;20544;-70
2022/07/24 07:01:14;;;;;;;4.17;1.50;;;16.90;99.90;;;;;;5091623;28;20197;-69
2022/07/24 07:03:42;;;;;;;3.73;1.10;;;16.70;99.90;;;;;;5093921;28;20213;-69
2022/07/24 07:06:09;;;;;;;2.03;1.30;;;16.50;99.90;;;;;;5092027;28;20662;-70
2022/07/24 07:08:37;;;;;;;3.90;1.43;;;16.40;99.90;;;;;;5075258;28;20179;-70
2022/07/24 07:11:04;;;;;;;1.60;1.00;;;16.20;99.90;;;;;;5093339;28;20254;-69
2022/07/24 07:13:32;;;;;;;3.60;1.50;;;16.10;99.90;;;;;;5093525;28;20548;-69
2022/07/24 07:15:59;;;;;;;2.33;1.50;;;16.00;99.90;;;;;;5093731;28;20214;-69
2022/07/24 07:18:26;;;;;;;3.87;1.77;;;15.90;99.90;;;;;;5093651;28;20175;-70
2022/07/24 07:20:54;;;;;;;3.70;1.30;;;15.70;99.90;;;;;;5093760;28;20262;-69
2022/07/24 07:23:26;;;;;;;2.90;1.43;;;15.60;99.90;;;;;;5093743;28;20653;-69
2022/07/24 07:25:54;;;;;;;5.03;1.40;;;15.60;99.90;;;;;;5093502;28;20193;-70
2022/07/24 07:28:22;;;;;;;2.10;1.20;;;15.50;99.90;;;;;;5093495;28;20180;-70
2022/07/24 07:30:49;;;;;;;2.33;1.57;;;15.30;99.90;;;;;;5093363;28;20310;-69
2022/07/24 07:33:16;;;;;;;5.40;1.50;;;15.30;99.90;;;;;;5093565;28;20178;-70
2022/07/24 07:35:44;;;;;;;2.47;1.30;;;15.20;99.90;;;;;;5092426;28;20205;-71
2022/07/24 07:38:11;;;;;;;3.40;1.80;;;15.20;99.90;;;;;;5075142;28;20194;-70
2022/07/24 07:40:38;;;;;;;3.73;1.50;;;15.10;99.90;;;;;;5093446;28;20181;-69
2022/07/24 07:43:06;;;;;;;3.47;1.73;;;15.00;99.90;;;;;;5093470;28;20258;-70
2022/07/24 07:45:33;;;;;;;29.40;19.43;;;15.00;99.90;;;;;;5074672;28;20184;-70
2022/07/24 07:48:00;;;;;;;19.50;11.83;;;14.90;99.90;;;;;;5095531;28;20188;-71
2022/07/24 07:50:28;;;;;;;12.13;7.83;;;14.80;99.90;;;;;;5093042;28;20179;-70
2022/07/24 07:52:56;;;;;;;14.00;6.07;;;14.70;99.90;;;;;;5093146;28;20623;-70
2022/07/24 07:55:23;;;;;;;6.33;2.80;;;14.60;99.90;;;;;;5093020;28;20183;-69
2022/07/24 07:57:50;;;;;;;5.27;2.77;;;14.60;99.90;;;;;;5092869;28;20194;-69
2022/07/24 08:00:19;;;;;;;7.33;3.67;;;14.50;99.90;;;;;;5091861;28;20183;-70
2022/07/24 08:02:46;;;;;;;7.43;4.73;;;14.60;99.90;;;;;;5092800;28;20243;-70
2022/07/24 08:05:14;;;;;;;6.80;4.67;;;14.50;99.90;;;;;;5100253;28;20215;-69
2022/07/24 08:07:41;;;;;;;9.70;5.33;;;14.50;99.90;;;;;;5092207;28;20186;-70
2022/07/24 08:10:09;;;;;;;5.60;4.00;;;14.40;99.90;;;;;;5092467;28;20522;-69
2022/07/24 08:12:36;;;;;;;4.43;2.50;;;14.40;99.90;;;;;;5092745;28;20220;-70
2022/07/24 08:15:04;;;;;;;7.67;2.90;;;14.40;99.90;;;;;;5092631;28;20179;-70
2022/07/24 08:17:32;;;;;;;5.77;2.97;;;14.40;99.90;;;;;;5092330;28;20187;-69
2022/07/24 08:19:59;;;;;;;4.73;2.83;;;14.40;99.90;;;;;;5092607;28;20175;-69
2022/07/24 08:22:26;;;;;;;7.43;3.50;;;14.40;99.90;;;;;;5092201;28;20188;-70
2022/07/24 08:24:53;;;;;;;5.77;3.07;;;14.40;99.90;;;;;;5073848;28;20567;-70
2022/07/24 08:27:21;;;;;;;8.63;3.37;;;14.30;99.90;;;;;;5092265;28;20183;-70
2022/07/24 08:29:48;;;;;;;7.87;3.13;;;14.30;99.90;;;;;;5108075;28;20211;-69
2022/07/24 08:32:16;;;;;;;6.23;3.10;;;14.20;99.90;;;;;;5092101;28;20227;-71
2022/07/24 08:34:43;;;;;;;7.30;3.07;;;14.20;99.90;;;;;;5092421;28;20179;-70
2022/07/24 08:37:10;;;;;;;9.30;3.53;;;14.10;99.90;;;;;;5112977;28;20182;-70
2022/07/24 08:39:38;;;;;;;10.40;3.50;;;14.00;99.90;;;;;;5106860;28;20225;-69
2022/07/24 08:42:08;;;;;;;9.77;3.20;;;14.00;99.90;;;;;;5099461;28;20161;-69
2022/07/24 08:44:36;;;;;;;10.07;3.80;;;13.90;99.90;;;;;;5098753;28;20206;-71
2022/07/24 08:47:03;;;;;;;5.73;3.47;;;13.90;99.90;;;;;;5092260;28;20171;-71
2022/07/24 08:49:33;;;;;;;6.97;3.23;;;13.80;99.90;;;;;;5094421;28;20186;-71
2022/07/24 08:52:02;;;;;;;6.97;3.33;;;13.70;99.90;;;;;;5091923;28;20217;-70
2022/07/24 08:54:30;;;;;;;8.33;3.40;;;13.60;99.90;;;;;;5091995;28;20170;-70
2022/07/24 08:56:57;;;;;;;8.20;4.70;;;13.50;99.90;;;;;;5092045;28;20175;-71
2022/07/24 08:59:25;;;;;;;10.77;4.97;;;13.50;99.90;;;;;;5091230;28;20513;-70
2022/07/24 09:01:53;;;;;;;10.00;5.90;;;13.40;99.90;;;;;;5092039;28;20220;-70
2022/07/24 09:04:47;;;;;;;8.83;5.20;;;13.30;99.90;;;;;;5091802;28;20176;-71
2022/07/24 09:07:18;;;;;;;10.50;5.57;;;13.30;99.90;;;;;;5091793;28;20218;-70
2022/07/24 09:10:04;;;;;;;13.90;5.27;;;13.20;99.90;;;;;;5091495;28;20193;-70
2022/07/24 09:12:34;;;;;;;12.37;5.80;;;13.10;99.90;;;;;;5073266;28;20227;-70
2022/07/24 09:15:10;;;;;;;13.53;5.40;;;13.10;99.90;;;;;;5091880;28;20183;-70
2022/07/24 09:17:56;;;;;;;11.67;5.70;;;13.00;99.90;;;;;;5091609;28;20580;-70
2022/07/24 09:20:28;;;;;;;11.53;5.77;;;12.90;99.90;;;;;;5091337;28;20206;-69
2022/07/24 09:22:58;;;;;;;15.33;7.37;;;12.90;99.90;;;;;;5091746;28;20175;-69
2022/07/24 09:25:29;;;;;;;10.07;6.33;;;12.90;99.90;;;;;;5091818;28;20283;-69
2022/07/24 09:28:02;;;;;;;13.33;8.43;;;12.90;99.90;;;;;;5091625;28;20602;-70
2022/07/24 09:30:31;;;;;;;17.40;9.17;;;12.80;99.90;;;;;;5073048;28;20237;-69
2022/07/24 09:33:03;;;;;;;16.10;9.00;;;12.80;99.90;;;;;;5091438;28;20230;-69
2022/07/24 09:35:39;;;;;;;16.23;7.87;;;12.70;99.90;;;;;;5060927;28;20195;-70
2022/07/24 09:38:11;;;;;;;17.83;10.17;;;12.70;99.90;;;;;;5080059;28;20255;-70
2022/07/24 09:40:41;;;;;;;14.00;9.77;;;12.70;99.90;;;;;;5091376;28;20281;-71
2022/07/24 09:43:35;;;;;;;19.00;11.57;;;12.80;99.90;;;;;;5091237;28;20186;-70
2022/07/24 09:46:10;;;;;;;22.87;12.80;;;12.80;99.90;;;;;;5073451;28;20196;-68
2022/07/24 09:48:40;;;;;;;18.07;11.10;;;12.80;99.90;;;;;;5091420;28;20181;-68
2022/07/24 09:51:13;;;;;;;18.57;11.27;;;12.70;99.90;;;;;;5072923;28;20225;-69
2022/07/24 09:53:41;;;;;;;19.33;11.17;;;12.50;99.90;;;;;;5091554;28;20182;-69
2022/07/24 09:56:18;;;;;;;18.13;11.67;;;12.40;99.90;;;;;;5091314;28;20190;-69
2022/07/24 09:58:55;;;;;;;18.00;11.10;;;12.30;99.90;;;;;;5091382;28;20186;-69
2022/07/24 10:01:25;;;;;;;18.27;10.90;;;12.30;99.90;;;;;;5091122;28;20192;-69
2022/07/24 10:03:55;;;;;;;20.80;11.17;;;12.20;99.90;;;;;;5091147;28;20193;-69
2022/07/24 10:06:26;;;;;;;19.80;11.00;;;12.10;99.90;;;;;;5090549;28;20243;-70
2022/07/24 10:08:54;;;;;;;19.43;11.90;;;12.10;99.90;;;;;;5095495;28;20189;-69
2022/07/24 10:11:22;;;;;;;29.50;15.70;;;12.00;99.90;;;;;;5092790;28;20244;-69
2022/07/24 10:13:50;;;;;;;26.23;14.30;;;12.00;99.90;;;;;;5091302;28;20197;-69
2022/07/24 10:16:31;;;;;;;38.37;22.40;;;11.90;99.90;;;;;;5091225;28;20193;-70
2022/07/24 10:19:01;;;;;;;50.43;26.50;;;11.90;99.90;;;;;;5091005;28;20209;-69
2022/07/24 10:21:37;;;;;;;56.70;31.47;;;11.90;99.90;;;;;;5090628;28;20176;-71
2022/07/24 10:24:07;;;;;;;54.07;31.87;;;11.90;99.90;;;;;;5091885;28;20235;-70
2022/07/24 10:26:42;;;;;;;60.47;32.10;;;11.70;99.90;;;;;;5094980;28;20184;-71
2022/07/24 10:29:14;;;;;;;58.10;29.87;;;11.70;99.90;;;;;;5094819;28;20178;-71
2022/07/24 10:31:44;;;;;;;51.23;29.90;;;11.60;99.90;;;;;;5076325;28;20236;-69
2022/07/24 10:34:41;;;;;;;50.87;27.83;;;11.60;99.90;;;;;;5094483;28;20188;-71
2022/07/24 10:37:20;;;;;;;49.97;27.43;;;11.50;99.90;;;;;;5094624;28;20639;-69
2022/07/24 10:40:03;;;;;;;51.20;27.73;;;11.50;99.90;;;;;;5076301;28;20261;-70
2022/07/24 10:42:32;;;;;;;50.30;28.43;;;11.50;99.90;;;;;;5094453;28;20181;-70
2022/07/24 10:45:18;;;;;;;54.83;28.47;;;11.40;99.90;;;;;;5094518;28;20181;-71
2022/07/24 10:47:47;;;;;;;44.57;25.17;;;11.40;99.90;;;;;;5096968;28;20179;-71
2022/07/24 10:50:15;;;;;;;35.93;22.73;;;11.40;99.90;;;;;;5099389;28;20184;-71
2022/07/24 10:52:43;;;;;;;33.20;17.90;;;11.40;99.90;;;;;;5094367;28;20213;-70
2022/07/24 10:55:28;;;;;;;27.37;16.77;;;11.40;99.90;;;;;;5094456;28;20899;-70
2022/07/24 10:58:00;;;;;;;23.33;14.40;;;11.40;99.90;;;;;;5094432;28;20255;-70
2022/07/24 11:00:37;;;;;;;27.40;15.90;;;11.40;99.90;;;;;;5100619;28;20183;-68
2022/07/24 11:03:19;;;;;;;24.17;14.70;;;11.30;99.90;;;;;;5073824;28;20188;-69
2022/07/24 11:06:08;;;;;;;22.83;14.77;;;11.30;99.90;;;;;;5073937;28;20168;-69
2022/07/24 11:08:46;;;;;;;29.70;16.53;;;11.20;99.90;;;;;;5073831;28;20183;-69
2022/07/24 11:11:19;;;;;;;29.93;16.97;;;11.20;99.90;;;;;;5087522;28;20260;-69
2022/07/24 11:13:50;;;;;;;34.33;22.10;;;11.20;99.90;;;;;;5093903;28;20176;-69
2022/07/24 11:16:17;;;;;;;36.60;22.93;;;11.20;99.90;;;;;;5094003;28;20642;-70
2022/07/24 11:18:51;;;;;;;34.67;22.73;;;11.10;99.90;;;;;;5092535;28;20184;-69
2022/07/24 11:21:43;;;;;;;38.60;22.00;;;11.10;99.90;;;;;;5093277;28;20556;-69
2022/07/24 11:24:17;;;;;;;31.70;20.57;;;11.10;99.90;;;;;;5093660;28;20534;-69
2022/07/24 11:26:55;;;;;;;31.17;20.77;;;11.00;99.90;;;;;;5093665;28;20625;-69
2022/07/24 11:29:35;;;;;;;22.77;13.80;;;10.90;99.90;;;;;;5093665;28;20221;-69
2022/07/24 11:32:14;;;;;;;17.77;11.57;;;10.90;99.90;;;;;;5104006;28;20244;-68
2022/07/24 11:34:46;;;;;;;20.73;14.10;;;10.80;99.90;;;;;;5101284;28;20185;-69
2022/07/24 11:37:14;;;;;;;21.50;13.47;;;10.90;99.90;;;;;;5098193;28;20718;-70
2022/07/24 11:39:44;;;;;;;21.03;14.30;;;10.80;99.90;;;;;;5101819;28;20188;-69
2022/07/24 11:42:14;;;;;;;20.50;13.53;;;10.70;99.90;;;;;;5103155;28;20266;-70
2022/07/24 11:44:51;;;;;;;19.17;13.13;;;10.70;99.90;;;;;;5093374;28;20188;-70
2022/07/24 11:47:23;;;;;;;21.43;13.97;;;10.70;99.90;;;;;;5093544;28;20263;-70
2022/07/24 11:49:56;;;;;;;22.33;14.93;;;10.60;99.90;;;;;;5075362;28;20183;-68
2022/07/24 11:52:32;;;;;;;22.80;13.87;;;10.70;99.90;;;;;;5092884;28;20212;-69
2022/07/24 11:55:10;;;;;;;20.00;14.30;;;10.70;99.90;;;;;;5074916;28;20559;-69
2022/07/24 11:57:40;;;;;;;20.47;13.43;;;10.60;99.90;;;;;;5093306;28;20180;-70
2022/07/24 12:00:13;;;;;;;20.10;14.40;;;10.60;99.90;;;;;;5093064;28;20178;-67
2022/07/24 12:02:56;;;;;;;19.70;14.07;;;10.60;99.90;;;;;;5092793;28;20202;-70
2022/07/24 12:05:28;;;;;;;18.30;12.80;;;10.50;99.90;;;;;;5093011;28;20174;-69
2022/07/24 12:07:58;;;;;;;20.87;14.47;;;10.50;99.90;;;;;;5093118;28;20191;-68
2022/07/24 12:10:27;;;;;;;21.00;14.73;;;10.50;99.90;;;;;;5092947;28;20175;-68
2022/07/24 12:12:56;;;;;;;17.73;12.50;;;10.40;99.90;;;;;;5091951;28;20195;-69
2022/07/24 12:15:25;;;;;;;19.70;12.47;;;10.40;99.90;;;;;;5092570;28;20186;-70
2022/07/24 12:18:15;;;;;;;18.23;11.87;;;10.40;99.90;;;;;;5092786;28;20178;-70
2022/07/24 12:20:45;;;;;;;18.43;12.87;;;10.40;99.90;;;;;;5092851;28;20255;-70
2022/07/24 12:23:20;;;;;;;18.67;12.90;;;10.30;99.90;;;;;;5093225;28;20183;-70
2022/07/24 12:25:48;;;;;;;19.57;13.50;;;10.30;99.90;;;;;;5075617;28;20175;-70
2022/07/24 12:28:20;;;;;;;20.43;12.47;;;10.20;99.90;;;;;;5093853;28;20171;-70
2022/07/24 12:30:50;;;;;;;17.63;12.63;;;10.10;99.90;;;;;;5093830;28;20594;-71
2022/07/24 12:33:22;;;;;;;22.80;14.20;;;10.10;99.90;;;;;;5093726;28;20273;-70
2022/07/24 12:35:57;;;;;;;20.93;13.20;;;10.10;99.90;;;;;;5093688;28;20175;-69
2022/07/24 12:38:33;;;;;;;19.73;13.17;;;10.10;99.90;;;;;;5093671;28;20186;-70
2022/07/24 12:41:14;;;;;;;19.27;12.77;;;10.10;99.90;;;;;;5093699;28;20564;-69
2022/07/24 12:44:02;;;;;;;15.93;12.70;;;10.10;99.90;;;;;;5093809;28;20327;-71
2022/07/24 12:46:37;;;;;;;15.43;11.70;;;10.00;99.90;;;;;;5093394;28;20182;-70
2022/07/24 12:49:09;;;;;;;21.77;12.70;;;10.00;99.90;;;;;;5093744;28;20236;-71
2022/07/24 12:51:59;;;;;;;18.70;12.93;;;10.00;99.90;;;;;;5093505;28;20226;-70
2022/07/24 12:54:46;;;;;;;16.43;12.27;;;10.00;99.90;;;;;;5093694;28;20717;-70